createdAt,value
2022-10-06T00:00:01.037Z,8.97
2022-10-06T00:02:28.546Z,9.04
2022-10-06T00:04:55.417Z,9.11
2022-10-06T00:07:22.148Z,9.16
2022-10-06T00:09:49.117Z,9.20
2022-10-06T00:12:15.887Z,9.22
2022-10-06T00:14:42.672Z,9.23
2022-10-06T00:17:09.450Z,9.24
2022-10-06T00:19:36.228Z,9.24
2022-10-06T00:22:02.968Z,9.23
2022-10-06T00:24:30.239Z,9.23
2022-10-06T00:26:57.040Z,9.28
2022-10-06T00:29:23.836Z,9.33
2022-10-06T00:31:51.987Z,9.41
2022-10-06T00:34:18.713Z,9.48
2022-10-06T00:36:45.432Z,9.54
2022-10-06T00:39:12.200Z,9.58
2022-10-06T00:41:39.575Z,9.61
2022-10-06T00:44:06.423Z,9.67
2022-10-06T00:46:37.311Z,9.73
2022-10-06T00:49:24.271Z,9.82
2022-10-06T00:51:57.546Z,9.90
2022-10-06T00:54:25.550Z,9.99
2022-10-06T00:56:52.772Z,10.06
2022-10-06T00:59:20.361Z,10.13
2022-10-06T01:01:52.159Z,10.17
2022-10-06T01:04:19.734Z,10.22
2022-10-06T01:06:52.547Z,10.27
2022-10-06T01:09:21.113Z,10.31
2022-10-06T01:11:52.440Z,10.36
2022-10-06T01:14:20.723Z,10.43
2022-10-06T01:16:53.440Z,10.45
2022-10-06T01:19:26.734Z,10.47
2022-10-06T01:21:55.251Z,10.48
2022-10-06T01:24:22.286Z,10.48
2022-10-06T01:26:51.877Z,10.48
2022-10-06T01:29:19.639Z,10.49
2022-10-06T01:31:46.575Z,10.49
2022-10-06T01:34:13.458Z,10.49
2022-10-06T01:36:41.463Z,10.47
2022-10-06T01:39:09.175Z,10.47
2022-10-06T01:41:37.116Z,10.47
2022-10-06T01:44:04.042Z,10.50
2022-10-06T01:46:30.996Z,10.51
2022-10-06T01:48:57.964Z,10.53
2022-10-06T01:51:25.221Z,10.54
2022-10-06T01:53:52.317Z,10.54
2022-10-06T01:56:21.290Z,10.53
2022-10-06T01:58:48.454Z,10.53
2022-10-06T02:01:16.307Z,10.54
2022-10-06T02:03:43.181Z,10.57
2022-10-06T02:06:10.443Z,10.57
2022-10-06T02:08:37.450Z,10.56
2022-10-06T02:11:09.363Z,10.53
2022-10-06T02:13:41.560Z,10.52
2022-10-06T02:16:09.471Z,10.53
2022-10-06T02:18:36.645Z,10.55
2022-10-06T02:21:04.042Z,10.57
2022-10-06T02:23:31.737Z,10.60
2022-10-06T02:26:00.245Z,10.59
2022-10-06T02:28:28.364Z,10.63
2022-10-06T02:31:01.568Z,10.66
2022-10-06T02:33:28.463Z,10.72
2022-10-06T02:35:56.207Z,10.76
2022-10-06T02:38:24.367Z,10.78
2022-10-06T02:40:52.024Z,10.81
2022-10-06T02:43:19.204Z,10.83
2022-10-06T02:46:02.070Z,10.86
2022-10-06T02:48:30.303Z,10.89
2022-10-06T02:50:59.451Z,10.91
2022-10-06T02:53:26.824Z,10.90
2022-10-06T02:56:00.752Z,10.90
2022-10-06T02:58:31.310Z,10.89
2022-10-06T03:01:12.613Z,10.90
2022-10-06T03:03:39.890Z,10.90
2022-10-06T03:06:22.021Z,10.91
2022-10-06T03:08:59.603Z,10.91
2022-10-06T03:11:28.646Z,10.89
2022-10-06T03:13:55.724Z,10.89
2022-10-06T03:16:26.221Z,10.89
2022-10-06T03:18:54.841Z,10.90
2022-10-06T03:21:24.582Z,10.92
2022-10-06T03:23:53.732Z,10.92
2022-10-06T03:26:23.852Z,10.91
2022-10-06T03:28:50.632Z,10.88
2022-10-06T03:31:18.019Z,10.85
2022-10-06T03:33:45.550Z,10.83
2022-10-06T03:36:16.054Z,10.83
2022-10-06T03:38:43.190Z,10.82
2022-10-06T03:41:14.320Z,10.80
2022-10-06T03:43:44.509Z,10.75
2022-10-06T03:46:14.815Z,10.71
2022-10-06T03:48:42.330Z,10.67
2022-10-06T03:51:17.077Z,10.66
2022-10-06T03:53:47.312Z,10.65
2022-10-06T03:56:20.714Z,10.65
2022-10-06T03:58:54.379Z,10.66
2022-10-06T04:01:26.457Z,10.64
2022-10-06T04:03:59.389Z,10.62
2022-10-06T04:06:29.005Z,10.58
2022-10-06T04:08:56.611Z,10.54
2022-10-06T04:11:28.831Z,10.60
2022-10-06T04:14:01.795Z,10.59
2022-10-06T04:16:36.682Z,10.61
2022-10-06T04:19:09.063Z,10.61
2022-10-06T04:21:41.058Z,10.54
2022-10-06T04:24:13.138Z,10.40
2022-10-06T04:26:46.708Z,10.35
2022-10-06T04:29:15.738Z,10.29
2022-10-06T04:31:47.356Z,10.27
2022-10-06T04:34:23.398Z,10.26
2022-10-06T04:36:53.833Z,10.19
2022-10-06T04:39:21.213Z,10.22
2022-10-06T04:41:49.134Z,10.07
2022-10-06T04:44:21.453Z,9.86
2022-10-06T04:46:51.791Z,9.66
2022-10-06T04:49:21.532Z,9.46
2022-10-06T04:51:51.695Z,9.36
2022-10-06T04:54:19.539Z,9.41
2022-10-06T04:56:52.990Z,9.36
2022-10-06T04:59:43.060Z,9.36
2022-10-06T05:02:11.143Z,9.31
2022-10-06T05:04:38.704Z,9.28
2022-10-06T05:07:06.782Z,9.21
2022-10-06T05:09:34.413Z,9.30
2022-10-06T05:12:04.692Z,9.36
2022-10-06T05:14:33.738Z,9.42
2022-10-06T05:17:01.769Z,9.50
2022-10-06T05:19:30.893Z,9.52
2022-10-06T05:21:59.958Z,9.67
2022-10-06T05:24:31.045Z,9.77
2022-10-06T05:27:01.900Z,9.92
2022-10-06T05:29:35.534Z,10.11
2022-10-06T05:32:05.438Z,10.22
2022-10-06T05:34:38.639Z,10.41
2022-10-06T05:37:08.099Z,10.57
2022-10-06T05:39:35.813Z,10.71
2022-10-06T05:42:05.640Z,10.95
2022-10-06T05:44:33.042Z,11.10
2022-10-06T05:47:06.055Z,11.34
2022-10-06T05:49:43.325Z,11.54
2022-10-06T05:52:21.243Z,11.81
2022-10-06T05:54:48.737Z,12.01
2022-10-06T05:57:16.848Z,12.22
2022-10-06T05:59:45.618Z,12.43
2022-10-06T06:02:13.274Z,12.62
2022-10-06T06:04:42.337Z,12.81
2022-10-06T06:07:09.965Z,12.96
2022-10-06T06:09:38.131Z,13.21
2022-10-06T06:12:05.438Z,13.39
2022-10-06T06:15:04.651Z,13.61
2022-10-06T06:17:37.495Z,13.79
2022-10-06T06:20:06.117Z,13.93
2022-10-06T06:22:33.018Z,14.15
2022-10-06T06:25:00.899Z,14.40
2022-10-06T06:27:28.724Z,14.63
2022-10-06T06:29:57.513Z,14.79
2022-10-06T06:32:28.033Z,14.86
2022-10-06T06:34:55.264Z,14.93
2022-10-06T06:37:23.354Z,14.97
2022-10-06T06:39:50.322Z,14.93
2022-10-06T06:42:17.854Z,14.87
2022-10-06T06:44:58.134Z,14.78
2022-10-06T06:47:32.297Z,14.75
2022-10-06T06:50:03.248Z,14.70
2022-10-06T06:52:32.420Z,14.68
2022-10-06T06:55:00.782Z,14.67
2022-10-06T06:57:28.287Z,14.70
2022-10-06T07:00:02.843Z,14.69
2022-10-06T07:02:31.257Z,14.81
2022-10-06T07:04:59.446Z,15.03
2022-10-06T07:07:26.518Z,15.24
2022-10-06T07:09:53.659Z,15.40
2022-10-06T07:12:22.781Z,15.59
2022-10-06T07:15:09.541Z,15.75
2022-10-06T07:17:57.073Z,15.98
2022-10-06T07:20:41.234Z,16.20
2022-10-06T07:23:31.809Z,16.40
2022-10-06T07:25:58.739Z,16.54
2022-10-06T07:28:27.054Z,16.72
2022-10-06T07:30:54.801Z,16.94
2022-10-06T07:33:21.882Z,17.09
2022-10-06T07:35:49.628Z,17.36
2022-10-06T07:38:29.129Z,17.71
2022-10-06T07:41:18.437Z,18.07
2022-10-06T07:43:48.781Z,18.43
2022-10-06T07:46:19.653Z,18.64
2022-10-06T07:48:56.490Z,19.07
2022-10-06T07:51:24.781Z,19.45
2022-10-06T07:53:53.847Z,19.88
2022-10-06T07:56:33.018Z,20.29
2022-10-06T07:59:00.711Z,20.40
2022-10-06T08:01:30.510Z,20.49
2022-10-06T08:03:57.864Z,20.45
2022-10-06T08:06:26.403Z,20.43
2022-10-06T08:08:54.022Z,20.36
2022-10-06T08:11:23.878Z,20.28
2022-10-06T08:13:52.823Z,20.19
2022-10-06T08:16:22.842Z,20.09
2022-10-06T08:18:53.557Z,19.96
2022-10-06T08:21:27.533Z,19.80
2022-10-06T08:23:57.970Z,19.62
2022-10-06T08:26:27.635Z,19.47
2022-10-06T08:29:05.637Z,19.35
2022-10-06T08:31:33.890Z,19.29
2022-10-06T08:34:04.413Z,19.28
2022-10-06T08:36:33.588Z,19.47
2022-10-06T08:39:01.583Z,19.67
2022-10-06T08:41:39.939Z,19.80
2022-10-06T08:44:19.386Z,19.73
2022-10-06T08:46:58.670Z,19.72
2022-10-06T08:49:28.516Z,19.76
2022-10-06T08:51:56.213Z,19.81
2022-10-06T08:54:32.922Z,19.81
2022-10-06T08:57:15.531Z,19.85
2022-10-06T08:59:47.178Z,19.92
2022-10-06T09:02:29.130Z,19.83
2022-10-06T09:05:00.949Z,19.85
2022-10-06T09:07:59.599Z,19.79
2022-10-06T09:10:35.566Z,19.73
2022-10-06T09:13:10.442Z,19.76
2022-10-06T09:15:51.061Z,19.90
2022-10-06T09:18:22.911Z,20.19
2022-10-06T09:20:57.394Z,20.38
2022-10-06T09:23:43.817Z,20.63
2022-10-06T09:26:13.696Z,20.91
2022-10-06T09:28:41.126Z,20.98
2022-10-06T09:31:22.049Z,21.08
2022-10-06T09:33:53.397Z,21.15
2022-10-06T09:36:20.810Z,21.14
2022-10-06T09:38:55.992Z,21.13
2022-10-06T09:41:27.457Z,21.15
2022-10-06T09:44:00.769Z,21.24
2022-10-06T09:46:41.835Z,21.34
2022-10-06T09:49:20.816Z,21.49
2022-10-06T09:52:03.890Z,21.67
2022-10-06T09:54:35.798Z,21.70
2022-10-06T09:57:10.702Z,21.66
2022-10-06T09:59:43.730Z,21.60
2022-10-06T10:02:28.426Z,21.50
2022-10-06T10:05:07.354Z,21.38
2022-10-06T10:07:36.797Z,21.30
2022-10-06T10:10:39.050Z,21.36
2022-10-06T10:13:28.590Z,21.55
2022-10-06T10:16:03.132Z,21.60
2022-10-06T10:21:30.289Z,21.63
2022-10-06T10:24:00.584Z,21.67
2022-10-06T10:26:54.047Z,21.74
2022-10-06T10:29:50.909Z,21.90
2022-10-06T10:32:30.355Z,22.07
2022-10-06T10:35:04.497Z,22.20
2022-10-06T10:37:52.184Z,22.30
2022-10-06T10:40:38.983Z,22.51
2022-10-06T10:43:10.840Z,22.69
2022-10-06T10:46:09.377Z,22.90
2022-10-06T10:48:43.013Z,23.12
2022-10-06T10:51:13.358Z,23.20
2022-10-06T10:53:48.420Z,23.12
2022-10-06T10:56:20.599Z,23.11
2022-10-06T10:58:52.255Z,23.19
2022-10-06T11:01:34.060Z,23.37
2022-10-06T11:04:02.563Z,23.46
2022-10-06T11:07:01.514Z,23.38
2022-10-06T11:09:49.325Z,23.44
2022-10-06T11:12:33.818Z,23.32
2022-10-06T11:15:12.839Z,23.35
2022-10-06T11:17:44.817Z,23.19
2022-10-06T11:21:08.326Z,23.20
2022-10-06T11:23:42.157Z,23.29
2022-10-06T11:26:20.304Z,23.34
2022-10-06T11:29:04.901Z,23.40
2022-10-06T11:31:42.848Z,23.47
2022-10-06T11:34:10.921Z,23.66
2022-10-06T11:36:54.349Z,23.64
2022-10-06T11:39:53.148Z,23.61
2022-10-06T11:42:25.138Z,23.35
2022-10-06T11:45:04.551Z,23.16
2022-10-06T11:47:36.194Z,23.00
2022-10-06T11:50:42.001Z,22.85
2022-10-06T11:53:27.742Z,22.64
2022-10-06T11:56:18.164Z,22.46
2022-10-06T11:58:56.447Z,22.15
2022-10-06T12:01:40.722Z,21.90
2022-10-06T12:04:09.885Z,21.71
2022-10-06T12:06:45.371Z,21.62
2022-10-06T12:09:39.198Z,21.66
2022-10-06T12:12:19.674Z,21.66
2022-10-06T12:18:01.972Z,22.14
2022-10-06T12:20:45.923Z,22.41
2022-10-06T12:23:19.062Z,22.61
2022-10-06T12:25:51.688Z,22.78
2022-10-06T12:28:19.625Z,23.11
2022-10-06T12:31:17.852Z,23.77
2022-10-06T12:33:46.364Z,24.57
2022-10-06T12:36:17.932Z,24.86
2022-10-06T12:39:05.113Z,24.71
2022-10-06T12:41:58.643Z,24.34
2022-10-06T12:44:30.729Z,23.98
2022-10-06T12:47:04.170Z,23.81
2022-10-06T12:49:41.738Z,23.65
2022-10-06T12:52:18.753Z,23.56
2022-10-06T12:54:58.705Z,23.51
2022-10-06T12:57:30.849Z,23.43
2022-10-06T12:59:58.187Z,23.31
2022-10-06T13:02:27.966Z,23.20
2022-10-06T13:04:59.571Z,23.07
2022-10-06T13:07:30.200Z,22.94
2022-10-06T13:10:15.577Z,22.83
2022-10-06T13:12:47.198Z,22.68
2022-10-06T13:15:24.033Z,22.58
2022-10-06T13:18:08.207Z,22.54
2022-10-06T13:20:37.042Z,22.55
2022-10-06T13:23:23.068Z,22.43
2022-10-06T13:25:59.033Z,22.30
2022-10-06T13:28:35.027Z,22.41
2022-10-06T13:31:12.083Z,22.50
2022-10-06T13:33:41.129Z,22.62
2022-10-06T13:36:09.423Z,22.64
2022-10-06T13:38:38.151Z,22.67
2022-10-06T13:41:14.618Z,22.62
2022-10-06T13:43:45.767Z,22.52
2022-10-06T13:50:03.149Z,21.94
2022-10-06T13:52:38.288Z,21.82
2022-10-06T13:55:14.971Z,21.73
2022-10-06T13:57:48.101Z,21.66
2022-10-06T14:00:23.991Z,21.62
2022-10-06T14:03:08.469Z,21.57
2022-10-06T14:05:50.503Z,21.55
2022-10-06T14:08:28.240Z,21.44
2022-10-06T14:11:14.501Z,21.45
2022-10-06T14:17:23.169Z,21.37
2022-10-06T14:28:51.809Z,20.92
2022-10-06T14:31:49.150Z,20.81
2022-10-06T14:34:21.264Z,20.74
2022-10-06T14:36:53.183Z,20.67
2022-10-06T14:39:20.333Z,20.55
2022-10-06T14:41:47.511Z,20.57
2022-10-06T14:44:17.163Z,20.53
2022-10-06T14:46:48.844Z,20.44
2022-10-06T14:49:16.568Z,20.44
2022-10-06T14:51:44.933Z,20.40
2022-10-06T14:54:13.139Z,20.34
2022-10-06T14:56:41.439Z,20.20
2022-10-06T14:59:12.632Z,20.21
2022-10-06T15:01:40.649Z,20.13
2022-10-06T15:04:13.681Z,20.00
2022-10-06T15:06:57.104Z,19.92
2022-10-06T15:09:24.197Z,19.84
2022-10-06T15:11:52.010Z,19.76
2022-10-06T15:14:19.148Z,19.70
2022-10-06T15:16:46.191Z,19.62
2022-10-06T15:19:18.850Z,19.58
2022-10-06T15:21:45.747Z,19.54
2022-10-06T15:24:16.577Z,19.50
2022-10-06T15:27:00.045Z,19.43
2022-10-06T15:29:26.872Z,19.38
2022-10-06T15:31:55.026Z,19.33
2022-10-06T15:34:26.101Z,19.28
2022-10-06T15:36:54.063Z,19.22
2022-10-06T15:39:23.803Z,19.13
2022-10-06T15:41:51.597Z,19.06
2022-10-06T15:44:19.724Z,19.02
2022-10-06T15:46:49.997Z,19.00
2022-10-06T15:49:20.782Z,18.97
2022-10-06T15:51:52.568Z,18.95
2022-10-06T15:54:22.120Z,18.89
2022-10-06T15:56:51.425Z,18.84
2022-10-06T15:59:24.171Z,18.78
2022-10-06T16:01:56.237Z,18.69
2022-10-06T16:04:33.976Z,18.57
2022-10-06T16:07:02.286Z,18.45
2022-10-06T16:09:32.676Z,18.35
2022-10-06T16:12:02.684Z,18.27
2022-10-06T16:14:29.952Z,18.19
2022-10-06T16:17:00.860Z,18.11
2022-10-06T16:19:29.466Z,18.02
2022-10-06T16:21:59.067Z,17.91
2022-10-06T16:24:26.743Z,17.82
2022-10-06T16:26:53.970Z,17.73
2022-10-06T16:29:22.043Z,17.66
2022-10-06T16:31:49.556Z,17.60
2022-10-06T16:34:16.550Z,17.56
2022-10-06T16:36:43.329Z,17.51
2022-10-06T16:39:17.254Z,17.45
2022-10-06T16:41:44.009Z,17.36
2022-10-06T16:44:11.742Z,17.27
2022-10-06T16:46:38.614Z,17.17
2022-10-06T16:49:08.623Z,17.09
2022-10-06T16:51:37.555Z,17.02
2022-10-06T16:54:07.367Z,16.96
2022-10-06T16:56:38.348Z,16.89
2022-10-06T16:59:12.155Z,16.82
2022-10-06T17:01:39.715Z,16.73
2022-10-06T17:04:09.336Z,16.62
2022-10-06T17:06:39.523Z,16.50
2022-10-06T17:09:11.257Z,16.36
2022-10-06T17:11:38.508Z,16.20
2022-10-06T17:14:05.552Z,16.04
2022-10-06T17:16:36.380Z,15.89
2022-10-06T17:19:04.316Z,15.78
2022-10-06T17:21:48.956Z,15.66
2022-10-06T17:24:19.340Z,15.52
2022-10-06T17:26:48.753Z,15.40
2022-10-06T17:29:19.028Z,15.27
2022-10-06T17:31:47.034Z,15.14
2022-10-06T17:34:21.146Z,15.02
2022-10-06T17:36:51.234Z,14.91
2022-10-06T17:39:21.976Z,14.80
2022-10-06T17:41:51.531Z,14.68
2022-10-06T17:44:23.232Z,14.58
2022-10-06T17:46:53.145Z,14.45
2022-10-06T17:49:21.624Z,14.34
2022-10-06T17:51:49.670Z,14.23
2022-10-06T17:54:20.213Z,14.12
2022-10-06T17:56:49.139Z,14.01
2022-10-06T17:59:17.602Z,13.90
2022-10-06T18:01:45.036Z,13.81
2022-10-06T18:04:16.277Z,13.70
2022-10-06T18:06:45.036Z,13.58
2022-10-06T18:09:12.821Z,13.46
2022-10-06T18:11:42.077Z,13.35
2022-10-06T18:14:12.550Z,13.28
2022-10-06T18:16:57.901Z,13.23
2022-10-06T18:19:30.315Z,13.15
2022-10-06T18:22:10.286Z,13.12
2022-10-06T18:24:38.752Z,13.06
2022-10-06T18:27:08.108Z,13.00
2022-10-06T18:29:37.134Z,12.93
2022-10-06T18:37:38.908Z,12.76
2022-10-06T18:40:08.825Z,12.74
2022-10-06T18:42:36.040Z,12.74
2022-10-06T18:45:19.005Z,12.75
2022-10-06T18:48:01.779Z,12.74
2022-10-06T18:50:28.542Z,12.75
2022-10-06T18:52:56.995Z,12.76
2022-10-06T18:55:24.157Z,12.77
2022-10-06T18:57:51.402Z,12.81
2022-10-06T19:00:18.544Z,12.83
2022-10-06T19:02:48.550Z,12.86
2022-10-06T19:05:17.499Z,12.88
2022-10-06T19:07:44.924Z,12.87
2022-10-06T19:10:12.198Z,12.89
2022-10-06T19:12:39.152Z,12.90
2022-10-06T19:15:06.384Z,12.92
2022-10-06T19:17:33.120Z,12.95
2022-10-06T19:19:59.877Z,12.98
2022-10-06T19:22:27.665Z,13.01
2022-10-06T19:24:54.463Z,13.03
2022-10-06T19:27:25.594Z,13.03
2022-10-06T19:29:56.790Z,13.02
2022-10-06T19:32:27.138Z,13.00
2022-10-06T19:34:57.974Z,13.00
2022-10-06T19:37:27.084Z,12.97
2022-10-06T19:39:53.936Z,12.99
2022-10-06T19:42:37.103Z,13.00
2022-10-06T19:45:05.753Z,13.00
2022-10-06T19:47:32.567Z,12.99
2022-10-06T19:50:03.702Z,12.95
2022-10-06T19:52:34.125Z,12.92
2022-10-06T19:55:00.897Z,12.90
2022-10-06T19:57:29.243Z,12.85
2022-10-06T19:59:56.292Z,12.78
2022-10-06T20:02:23.560Z,12.70
2022-10-06T20:04:50.926Z,12.63
2022-10-06T20:07:21.621Z,12.53
2022-10-06T20:09:48.654Z,12.42
2022-10-06T20:12:18.769Z,12.34
2022-10-06T20:14:46.480Z,12.29
2022-10-06T20:17:13.216Z,12.26
2022-10-06T20:19:40.359Z,12.17
2022-10-06T20:22:07.190Z,12.11
2022-10-06T20:24:34.002Z,12.01
2022-10-06T20:27:00.736Z,11.86
2022-10-06T20:29:28.567Z,11.69
2022-10-06T20:31:58.368Z,11.56
2022-10-06T20:34:31.847Z,11.44
2022-10-06T20:37:02.608Z,11.35
2022-10-06T20:39:47.383Z,11.26
2022-10-06T20:42:15.431Z,11.15
2022-10-06T20:44:43.158Z,11.06
2022-10-06T20:47:12.222Z,10.94
2022-10-06T20:49:40.058Z,10.83
2022-10-06T20:52:07.328Z,10.71
2022-10-06T20:54:35.288Z,10.62
2022-10-06T20:57:04.873Z,10.51
2022-10-06T20:59:33.206Z,10.38
2022-10-06T21:02:00.426Z,10.26
2022-10-06T21:04:27.757Z,10.16
2022-10-06T21:06:55.002Z,10.05
2022-10-06T21:09:22.005Z,9.96
2022-10-06T21:11:48.834Z,9.86
2022-10-06T21:14:16.029Z,9.77
2022-10-06T21:16:45.056Z,9.68
2022-10-06T21:19:14.641Z,9.62
2022-10-06T21:21:43.223Z,9.57
2022-10-06T21:24:10.477Z,9.55
2022-10-06T21:26:42.575Z,9.53
2022-10-06T21:29:12.970Z,9.46
2022-10-06T21:31:39.908Z,9.45
2022-10-06T21:34:07.561Z,9.42
2022-10-06T21:36:34.410Z,9.36
2022-10-06T21:39:04.481Z,9.30
2022-10-06T21:41:38.989Z,9.23
2022-10-06T21:44:10.618Z,9.15
2022-10-06T21:46:40.263Z,9.09
2022-10-06T21:49:10.565Z,9.02
2022-10-06T21:51:38.372Z,8.92
2022-10-06T21:54:05.391Z,8.81
2022-10-06T21:56:33.331Z,8.71
2022-10-06T21:59:00.485Z,8.65
2022-10-06T22:01:30.873Z,8.58
2022-10-06T22:04:00.214Z,8.53
2022-10-06T22:06:29.284Z,8.50
2022-10-06T22:08:57.374Z,8.47
2022-10-06T22:11:28.215Z,8.43
2022-10-06T22:13:57.937Z,8.35
2022-10-06T22:16:28.357Z,8.27
2022-10-06T22:18:55.230Z,8.19
2022-10-06T22:21:26.916Z,8.15
2022-10-06T22:23:56.384Z,8.10
2022-10-06T22:26:24.079Z,8.06
2022-10-06T22:28:52.995Z,8.02
2022-10-06T22:31:25.504Z,7.94
2022-10-06T22:33:55.872Z,7.84
2022-10-06T22:36:23.640Z,7.76
2022-10-06T22:38:50.894Z,7.74
2022-10-06T22:41:19.015Z,7.70
2022-10-06T22:43:45.793Z,7.68
2022-10-06T22:46:14.107Z,7.66
2022-10-06T22:48:41.851Z,7.64
2022-10-06T22:51:09.007Z,7.61
2022-10-06T22:53:36.105Z,7.58
2022-10-06T22:56:04.098Z,7.50
2022-10-06T22:58:31.542Z,7.42
2022-10-06T23:00:58.368Z,7.36
2022-10-06T23:03:25.277Z,7.31
2022-10-06T23:05:55.603Z,7.25
2022-10-06T23:08:22.710Z,7.19
2022-10-06T23:10:50.448Z,7.14
2022-10-06T23:13:17.407Z,7.10
2022-10-06T23:15:44.169Z,7.06
2022-10-06T23:18:11.015Z,7.03
2022-10-06T23:20:38.346Z,7.01
2022-10-06T23:23:05.339Z,6.99
2022-10-06T23:25:32.126Z,6.97
2022-10-06T23:27:59.005Z,6.92
2022-10-06T23:30:25.827Z,6.85
2022-10-06T23:32:52.583Z,6.80
2022-10-06T23:35:19.397Z,6.74
2022-10-06T23:37:46.713Z,6.68
2022-10-06T23:40:13.749Z,6.61
2022-10-06T23:42:40.505Z,6.57
2022-10-06T23:45:08.747Z,6.57
2022-10-06T23:47:35.620Z,6.55
2022-10-06T23:50:02.438Z,6.53
2022-10-06T23:52:29.322Z,6.50
2022-10-06T23:54:56.093Z,6.47
2022-10-06T23:57:22.894Z,6.43
2022-10-06T23:59:49.686Z,6.39
